»·PEaware :: N881PF KSBP-KSBP

N881PF :: KSBP-KSBP

FLIGHT INFORMATION

Flight Status: Arrived
Operator: Privately registered:
United States
More flights under this callsign
Pilot: Matthew N. (32817)
Aircraft: CIRRUS SR-20
(SR20)
More flights by this aircraft type
Origin: KSBP San Luis Co Regl
United States
Destination: KSBP San Luis Co Regl
United States
More flights between these airports :: More routes between these airports
Route:
File this flight plan on PilotEdge
Remarks:
Altitude:
(Current/Filed)
0ft
Speed:
(Current/Filed)
0kts
Departed: 08-Jan-21 11:48 AM
Arrived: 08-Jan-21 12:09 PM
Distance/Time
Traveled:
0nm/0:20
Distance/Time
To Go:
Arrived

Flight Plot

Page will automatically refresh every two minutes.


Map Options




Map Legend


Flown Route
Filed Route
Departure Airport
Arrival Airport
Navaid (VOR, NDB)
Fix

Horizontal Profiles

Position Reports

Time Latitude Longitude Heading Altitude Ground
Speed
08-Jan-21 11:29 35.238379 -120.640280 241 188ft 1kts
08-Jan-21 11:30 35.237704 -120.639764 123 190ft 7kts
08-Jan-21 11:31 35.235096 -120.635176 124 205ft 25kts
08-Jan-21 11:32 35.233256 -120.632156 189 211ft 0kts
08-Jan-21 11:33 35.233256 -120.632156 189 211ft 0kts
08-Jan-21 11:34 35.233256 -120.632156 189 211ft 0kts
08-Jan-21 11:35 35.233256 -120.632156 189 211ft 0kts
08-Jan-21 11:36 35.233256 -120.632156 189 211ft 0kts
08-Jan-21 11:37 35.233256 -120.632156 189 211ft 0kts
08-Jan-21 11:38 35.233256 -120.632156 189 211ft 0kts
08-Jan-21 11:39 35.233256 -120.632156 189 211ft 0kts
08-Jan-21 11:40 35.233253 -120.632157 191 211ft 0kts
08-Jan-21 11:41 35.233222 -120.632178 217 211ft 0kts
08-Jan-21 11:42 35.233222 -120.632178 217 211ft 0kts
08-Jan-21 11:43 35.233222 -120.632178 217 211ft 0kts
08-Jan-21 11:44 35.233222 -120.632178 217 211ft 0kts
08-Jan-21 11:45 35.233222 -120.632178 217 211ft 0kts
08-Jan-21 11:46 35.232890 -120.632747 243 209ft 8kts
08-Jan-21 11:47 35.243319 -120.651410 305 438ft 102kts
08-Jan-21 11:48 35.248689 -120.679499 218 1231ft 107kts
08-Jan-21 11:49 35.225154 -120.685327 123 1347ft 109kts
08-Jan-21 11:50 35.209328 -120.654053 119 1293ft 109kts
08-Jan-21 11:51 35.200333 -120.623472 52 1133ft 90kts
08-Jan-21 11:52 35.222415 -120.617609 331 708ft 92kts
08-Jan-21 11:53 35.236556 -120.639575 304 229ft 76kts
08-Jan-21 11:54 35.250493 -120.666309 286 962ft 99kts
08-Jan-21 11:55 35.228609 -120.682926 203 1283ft 107kts
08-Jan-21 11:56 35.203443 -120.677046 126 1414ft 108kts
08-Jan-21 11:57 35.185598 -120.645384 124 1157ft 111kts
08-Jan-21 11:58 35.198248 -120.620051 38 827ft 96kts
08-Jan-21 11:59 35.220598 -120.611638 320 576ft 80kts
08-Jan-21 12:00 35.233792 -120.634695 304 239ft 76kts
08-Jan-21 12:01 35.246889 -120.657645 304 583ft 95kts
08-Jan-21 12:02 35.246860 -120.682918 205 1299ft 109kts
08-Jan-21 12:03 35.221319 -120.684961 118 1249ft 113kts
08-Jan-21 12:04 35.205475 -120.649171 122 1090ft 119kts
08-Jan-21 12:05 35.199982 -120.617895 37 966ft 100kts
08-Jan-21 12:06 35.221395 -120.613429 311 709ft 87kts
08-Jan-21 12:07 35.235279 -120.637248 304 236ft 71kts
08-Jan-21 12:08 35.239825 -120.644029 32 174ft 0kts
08-Jan-21 12:09 35.239825 -120.644029 32 174ft 0kts
08-Jan-21 12:10 35.240294 -120.644156 135 173ft 4kts
08-Jan-21 12:11 35.238063 -120.640271 81 189ft 12kts
08-Jan-21 12:12 35.238142 -120.640094 60 189ft 0kts
08-Jan-21 12:13 35.238142 -120.640094 60 189ft 0kts
08-Jan-21 12:14 35.238142 -120.640094 60 189ft 0kts
08-Jan-21 12:15 35.238142 -120.640094 60 189ft 0kts
08-Jan-21 12:16 35.238142 -120.640094 60 189ft 0kts
08-Jan-21 12:17 35.238142 -120.640094 60 189ft 0kts
08-Jan-21 12:18 35.238142 -120.640094 60 189ft 0kts
08-Jan-21 12:19 35.238142 -120.640094 60 189ft 0kts
08-Jan-21 12:20 35.238142 -120.640094 60 189ft 0kts
08-Jan-21 12:21 35.238148 -120.640055 92 189ft 1kts
08-Jan-21 12:22 35.238132 -120.640013 130 189ft 0kts

Navigation Log

Ident Type
Flight plan parsing failed, navigation log unavailable